createdAt,value
2023-05-25T00:01:31.753Z,9.20
2023-05-25T00:04:00.718Z,9.00
2023-05-25T00:06:30.297Z,7.45
2023-05-25T00:08:59.087Z,7.00
2023-05-25T00:11:27.771Z,8.63
2023-05-25T00:13:56.494Z,7.68
2023-05-25T00:16:24.777Z,8.18
2023-05-25T00:18:57.709Z,7.45
2023-05-25T00:21:26.375Z,8.30
2023-05-25T00:23:55.093Z,8.63
2023-05-25T00:26:23.350Z,9.73
2023-05-25T00:28:51.941Z,7.85
2023-05-25T00:31:20.601Z,8.07
2023-05-25T00:33:50.549Z,8.50
2023-05-25T00:36:20.757Z,8.23
2023-05-25T00:38:49.224Z,9.80
2023-05-25T00:41:18.640Z,8.57
2023-05-25T00:43:47.664Z,11.15
2023-05-25T00:46:17.014Z,9.50
2023-05-25T00:48:47.116Z,10.07
2023-05-25T00:51:15.873Z,7.25
2023-05-25T00:53:45.996Z,7.88
2023-05-25T00:56:16.349Z,7.13
2023-05-25T00:58:46.227Z,6.55
2023-05-25T01:01:15.396Z,6.90
2023-05-25T01:03:46.910Z,6.07
2023-05-25T01:09:00.399Z,6.55
2023-05-25T01:11:30.645Z,6.53
2023-05-25T01:13:59.785Z,6.67
2023-05-25T01:16:28.161Z,6.97
2023-05-25T01:18:58.429Z,8.65
2023-05-25T01:21:31.987Z,8.10
2023-05-25T01:24:04.774Z,7.80
2023-05-25T01:26:36.447Z,8.52
2023-05-25T01:29:06.164Z,7.72
2023-05-25T01:31:36.226Z,9.38
2023-05-25T01:34:06.130Z,9.38
2023-05-25T01:36:35.771Z,8.60
2023-05-25T01:39:06.889Z,8.95
2023-05-25T01:41:35.267Z,9.23
2023-05-25T01:44:04.015Z,8.95
2023-05-25T01:46:35.785Z,7.80
2023-05-25T01:49:14.222Z,9.00
2023-05-25T01:51:49.634Z,9.88
2023-05-25T01:54:20.799Z,11.95
2023-05-25T01:56:51.132Z,13.32
2023-05-25T01:59:22.198Z,14.68
2023-05-25T02:01:52.950Z,13.13
2023-05-25T02:04:23.012Z,11.93
2023-05-25T02:06:54.124Z,11.20
2023-05-25T02:09:22.885Z,10.60
2023-05-25T02:11:51.249Z,11.13
2023-05-25T02:14:19.861Z,10.65
2023-05-25T02:16:48.520Z,9.18
2023-05-25T02:19:17.075Z,11.07
2023-05-25T02:21:47.517Z,11.02
2023-05-25T02:24:18.580Z,10.52
2023-05-25T02:26:47.032Z,10.60
2023-05-25T02:29:15.716Z,12.40
2023-05-25T02:31:44.148Z,12.75
2023-05-25T02:34:14.022Z,14.75
2023-05-25T02:36:43.474Z,15.88
2023-05-25T02:39:12.015Z,14.93
2023-05-25T02:41:41.834Z,12.85
2023-05-25T02:44:10.383Z,12.57
2023-05-25T02:46:38.845Z,11.20
2023-05-25T02:49:07.368Z,12.10
2023-05-25T02:51:36.074Z,10.45
2023-05-25T02:54:05.350Z,9.32
2023-05-25T02:56:33.817Z,12.73
2023-05-25T02:59:03.817Z,11.38
2023-05-25T03:01:32.409Z,10.25
2023-05-25T03:04:01.171Z,9.18
2023-05-25T03:06:30.035Z,9.40
2023-05-25T03:08:58.542Z,9.23
2023-05-25T03:11:27.032Z,9.13
2023-05-25T03:13:55.448Z,9.18
2023-05-25T03:16:26.152Z,8.48
2023-05-25T03:18:55.010Z,8.10
2023-05-25T03:21:23.808Z,7.65
2023-05-25T03:23:52.277Z,8.13
2023-05-25T03:26:21.228Z,7.53
2023-05-25T03:28:49.657Z,7.95
2023-05-25T03:31:18.127Z,7.53
2023-05-25T03:33:47.951Z,7.10
2023-05-25T03:36:17.639Z,7.90
2023-05-25T03:38:46.293Z,7.60
2023-05-25T03:41:14.481Z,8.02
2023-05-25T03:43:42.947Z,8.57
2023-05-25T03:46:11.791Z,8.13
2023-05-25T03:48:40.562Z,9.43
2023-05-25T03:51:10.101Z,10.18
2023-05-25T03:53:38.822Z,10.10
2023-05-25T03:56:08.225Z,9.55
2023-05-25T03:58:37.296Z,10.25
2023-05-25T04:01:05.779Z,9.55
2023-05-25T04:03:34.884Z,9.07
2023-05-25T04:06:04.151Z,9.75
2023-05-25T04:08:34.196Z,10.90
2023-05-25T04:11:02.506Z,9.77
2023-05-25T04:13:31.583Z,10.98
2023-05-25T04:15:59.921Z,11.93
2023-05-25T04:18:28.597Z,10.52
2023-05-25T04:20:57.617Z,9.77
2023-05-25T04:23:26.214Z,10.57
2023-05-25T04:25:56.336Z,9.73
2023-05-25T04:28:24.985Z,10.30
2023-05-25T04:30:57.416Z,9.45
2023-05-25T04:33:29.863Z,9.90
2023-05-25T04:35:59.829Z,9.95
2023-05-25T04:38:28.342Z,9.27
2023-05-25T04:40:58.904Z,9.55
2023-05-25T04:43:27.889Z,8.93
2023-05-25T04:45:56.880Z,10.00
2023-05-25T04:48:25.820Z,8.48
2023-05-25T04:50:55.839Z,8.20
2023-05-25T04:53:24.614Z,8.83
2023-05-25T04:55:54.846Z,9.35
2023-05-25T04:58:25.262Z,9.05
2023-05-25T05:00:53.621Z,8.98
2023-05-25T05:03:22.615Z,8.60
2023-05-25T05:05:51.052Z,7.93
2023-05-25T05:08:19.740Z,9.10
2023-05-25T05:10:48.126Z,8.02
2023-05-25T05:13:17.537Z,8.18
2023-05-25T05:15:48.807Z,7.60
2023-05-25T05:18:17.375Z,7.32
2023-05-25T05:20:46.460Z,9.07
2023-05-25T05:23:15.276Z,8.43
2023-05-25T05:25:43.887Z,8.95
2023-05-25T05:28:12.894Z,9.63
2023-05-25T05:30:41.298Z,10.75
2023-05-25T05:33:11.523Z,8.60
2023-05-25T05:35:39.835Z,8.18
2023-05-25T05:38:09.796Z,7.97
2023-05-25T05:40:38.332Z,8.02
2023-05-25T05:43:06.976Z,8.07
2023-05-25T05:45:35.566Z,7.63
2023-05-25T05:48:04.778Z,7.78
2023-05-25T05:50:34.490Z,7.35
2023-05-25T05:53:03.398Z,8.10
2023-05-25T05:55:31.743Z,7.15
2023-05-25T05:58:00.727Z,8.20
2023-05-25T06:00:29.205Z,8.23
2023-05-25T06:02:58.107Z,7.38
2023-05-25T06:05:27.105Z,9.30
2023-05-25T06:07:57.154Z,7.30
2023-05-25T06:10:25.594Z,7.97
2023-05-25T06:12:54.350Z,10.60
2023-05-25T06:15:22.682Z,11.95
2023-05-25T06:17:51.213Z,11.50
2023-05-25T06:20:19.532Z,11.27
2023-05-25T06:22:52.593Z,10.68
2023-05-25T06:27:51.058Z,8.73
2023-05-25T06:30:19.428Z,10.05
2023-05-25T06:32:48.584Z,8.90
2023-05-25T06:35:20.087Z,10.90
2023-05-25T06:37:49.481Z,9.90
2023-05-25T06:40:18.176Z,11.18
2023-05-25T06:42:48.222Z,9.80
2023-05-25T06:45:16.828Z,9.57
2023-05-25T06:47:45.821Z,9.82
2023-05-25T06:50:14.261Z,10.00
2023-05-25T06:52:42.959Z,9.77
2023-05-25T06:55:11.902Z,10.80
2023-05-25T06:57:41.607Z,11.18
2023-05-25T07:00:13.250Z,10.00
2023-05-25T07:02:42.191Z,9.48
2023-05-25T07:05:11.542Z,9.60
2023-05-25T07:07:40.116Z,9.68
2023-05-25T07:10:10.327Z,11.13
2023-05-25T07:12:39.227Z,9.73
2023-05-25T07:15:08.750Z,9.70
2023-05-25T07:17:39.169Z,10.35
2023-05-25T07:20:09.070Z,9.88
2023-05-25T07:22:38.042Z,9.50
2023-05-25T07:25:07.658Z,10.45
2023-05-25T07:27:36.384Z,12.27
2023-05-25T07:30:05.370Z,14.95
2023-05-25T07:32:34.084Z,14.23
2023-05-25T07:35:04.198Z,12.80
2023-05-25T07:37:32.865Z,12.32
2023-05-25T07:40:01.685Z,13.30
2023-05-25T07:42:34.408Z,12.98
2023-05-25T07:45:02.818Z,10.23
2023-05-25T07:47:31.809Z,11.30
2023-05-25T07:50:00.178Z,9.95
2023-05-25T07:52:30.415Z,10.80
2023-05-25T07:54:58.846Z,10.75
2023-05-25T07:57:27.419Z,10.70
2023-05-25T07:59:55.678Z,10.98
2023-05-25T08:02:24.388Z,11.95
2023-05-25T08:04:53.341Z,9.75
2023-05-25T08:07:22.157Z,9.65
2023-05-25T08:09:51.945Z,9.88
2023-05-25T08:14:52.127Z,9.93
2023-05-25T08:17:21.134Z,9.32
2023-05-25T08:19:49.757Z,11.63
2023-05-25T08:22:18.540Z,10.38
2023-05-25T08:24:46.983Z,9.45
2023-05-25T08:27:17.346Z,8.77
2023-05-25T08:29:45.721Z,10.50
2023-05-25T08:32:14.348Z,12.43
2023-05-25T08:34:42.497Z,14.05
2023-05-25T08:37:11.938Z,12.98
2023-05-25T08:39:40.467Z,13.52
2023-05-25T08:42:09.270Z,12.38
2023-05-25T08:44:40.217Z,11.93
2023-05-25T08:49:39.513Z,11.43
2023-05-25T08:52:12.422Z,12.15
2023-05-25T08:54:45.358Z,11.27
2023-05-25T08:57:16.887Z,12.15
2023-05-25T09:02:23.858Z,13.05
2023-05-25T09:04:52.512Z,14.50
2023-05-25T09:07:21.858Z,14.30
2023-05-25T09:09:50.742Z,14.80
2023-05-25T09:12:20.220Z,13.93
2023-05-25T09:14:50.116Z,16.08
2023-05-25T09:17:20.257Z,15.38
2023-05-25T09:19:48.809Z,15.75
2023-05-25T09:22:17.550Z,15.57
2023-05-25T09:24:46.238Z,15.07
2023-05-25T09:27:19.330Z,15.90
2023-05-25T09:29:50.713Z,16.98
2023-05-25T09:32:20.117Z,16.52
2023-05-25T09:34:48.927Z,16.85
2023-05-25T09:37:20.247Z,17.08
2023-05-25T09:39:49.221Z,18.20
2023-05-25T09:42:18.015Z,16.80
2023-05-25T09:44:46.509Z,18.52
2023-05-25T09:47:18.013Z,18.33
2023-05-25T09:49:49.525Z,17.77
2023-05-25T09:52:18.291Z,17.65
2023-05-25T09:54:47.430Z,18.25
2023-05-25T09:57:16.369Z,15.98
2023-05-25T09:59:45.532Z,16.10
2023-05-25T10:02:14.401Z,18.13
2023-05-25T10:04:44.138Z,15.68
2023-05-25T10:07:16.056Z,15.30
2023-05-25T10:09:47.643Z,16.85
2023-05-25T10:12:19.723Z,15.38
2023-05-25T10:14:50.771Z,14.70
2023-05-25T10:17:23.125Z,13.48
2023-05-25T10:19:57.041Z,15.13
2023-05-25T10:22:29.071Z,15.70
2023-05-25T10:25:03.553Z,15.98
2023-05-25T10:27:36.125Z,16.27
2023-05-25T10:30:04.731Z,15.93
2023-05-25T10:32:34.868Z,16.42
2023-05-25T10:35:05.442Z,17.67
2023-05-25T10:37:35.202Z,17.17
2023-05-25T10:40:03.818Z,16.83
2023-05-25T10:42:34.489Z,15.93
2023-05-25T10:45:03.448Z,16.65
2023-05-25T10:47:32.319Z,14.98
2023-05-25T10:50:03.245Z,16.75
2023-05-25T10:52:34.072Z,17.88
2023-05-25T10:55:05.395Z,18.80
2023-05-25T10:57:34.340Z,21.13
2023-05-25T11:00:06.667Z,18.73
2023-05-25T11:02:54.033Z,18.08
2023-05-25T11:05:36.845Z,17.65
2023-05-25T11:08:08.760Z,17.17
2023-05-25T11:10:56.730Z,16.33
2023-05-25T11:13:35.553Z,16.35
2023-05-25T11:16:19.146Z,15.82
2023-05-25T11:18:51.661Z,14.60
2023-05-25T11:21:40.926Z,12.82
2023-05-25T11:24:16.283Z,13.02
2023-05-25T11:26:59.224Z,13.48
2023-05-25T11:29:32.260Z,14.30
2023-05-25T11:32:01.545Z,14.02
2023-05-25T11:34:32.215Z,12.30
2023-05-25T11:37:04.048Z,14.13
2023-05-25T11:39:34.256Z,15.35
2023-05-25T11:42:07.110Z,14.65
2023-05-25T11:44:39.116Z,13.25
2023-05-25T11:47:10.290Z,13.50
2023-05-25T11:49:41.968Z,13.30
2023-05-25T11:52:10.722Z,12.05
2023-05-25T11:54:42.055Z,11.88
2023-05-25T11:57:15.759Z,12.55
2023-05-25T11:59:50.299Z,11.43
2023-05-25T12:02:18.900Z,12.30
2023-05-25T12:04:55.577Z,12.38
2023-05-25T12:07:24.776Z,13.63
2023-05-25T12:10:06.246Z,13.88
2023-05-25T12:12:42.674Z,12.57
2023-05-25T12:15:12.986Z,10.40
2023-05-25T12:17:44.401Z,11.05
2023-05-25T12:20:15.619Z,10.88
2023-05-25T12:22:45.252Z,9.10
2023-05-25T12:25:16.847Z,11.30
2023-05-25T12:30:16.380Z,11.68
2023-05-25T12:33:03.768Z,10.48
2023-05-25T12:35:46.295Z,9.55
2023-05-25T12:38:15.679Z,8.73
2023-05-25T12:40:46.322Z,8.23
2023-05-25T12:43:17.092Z,8.80
2023-05-25T12:45:46.498Z,10.57
2023-05-25T12:48:15.129Z,9.43
2023-05-25T12:50:59.268Z,9.40
2023-05-25T12:53:29.251Z,9.70
2023-05-25T12:56:06.617Z,9.83
2023-05-25T12:58:35.157Z,8.00
2023-05-25T13:01:04.202Z,9.48
2023-05-25T13:03:32.537Z,8.52
2023-05-25T13:06:02.653Z,8.18
2023-05-25T13:08:31.154Z,9.98
2023-05-25T13:11:00.323Z,8.35
2023-05-25T13:13:30.472Z,8.50
2023-05-25T13:15:59.429Z,9.23
2023-05-25T13:18:27.989Z,9.63
2023-05-25T13:20:57.485Z,10.00
2023-05-25T13:23:26.570Z,9.38
2023-05-25T13:25:55.156Z,9.45
2023-05-25T13:28:24.035Z,8.27
2023-05-25T13:30:54.248Z,9.52
2023-05-25T13:33:22.736Z,11.15
2023-05-25T13:35:59.300Z,8.93
2023-05-25T13:38:29.675Z,10.45
2023-05-25T13:40:58.663Z,9.00
2023-05-25T13:43:27.121Z,10.27
2023-05-25T13:45:59.202Z,9.93
2023-05-25T13:48:27.797Z,10.55
2023-05-25T13:50:56.814Z,9.90
2023-05-25T13:53:25.258Z,10.82
2023-05-25T13:55:54.469Z,9.50
2023-05-25T13:58:24.996Z,10.20
2023-05-25T14:00:53.973Z,10.23
2023-05-25T14:03:23.855Z,9.00
2023-05-25T14:05:54.111Z,9.70
2023-05-25T14:08:23.081Z,8.75
2023-05-25T14:10:51.783Z,9.70
2023-05-25T14:13:20.301Z,10.90
2023-05-25T14:15:49.378Z,10.02
2023-05-25T14:18:17.697Z,10.60
2023-05-25T14:20:48.161Z,10.73
2023-05-25T14:23:19.412Z,11.15
2023-05-25T14:25:49.905Z,10.38
2023-05-25T14:28:18.258Z,10.75
2023-05-25T14:30:46.897Z,11.48
2023-05-25T14:33:17.553Z,11.05
2023-05-25T14:35:47.888Z,11.13
2023-05-25T14:38:16.556Z,10.38
2023-05-25T14:40:45.755Z,10.27
2023-05-25T14:43:14.189Z,10.63
2023-05-25T14:45:43.054Z,11.52
2023-05-25T14:48:16.779Z,11.85
2023-05-25T14:50:47.298Z,10.88
2023-05-25T14:53:16.259Z,14.63
2023-05-25T14:55:45.300Z,15.52
2023-05-25T14:58:13.938Z,15.15
2023-05-25T15:00:42.754Z,16.92
2023-05-25T15:03:11.193Z,15.05
2023-05-25T15:05:40.038Z,18.23
2023-05-25T15:08:09.884Z,17.33
2023-05-25T15:10:38.899Z,17.30
2023-05-25T15:13:07.466Z,16.48
2023-05-25T15:15:36.437Z,17.10
2023-05-25T15:18:05.248Z,18.73
2023-05-25T15:20:34.115Z,17.65
2023-05-25T15:23:03.340Z,16.88
2023-05-25T15:25:35.649Z,16.02
2023-05-25T15:28:05.087Z,14.60
2023-05-25T15:30:34.584Z,13.10
2023-05-25T15:33:03.546Z,15.45
2023-05-25T15:35:35.599Z,13.38
2023-05-25T15:38:04.726Z,13.77
2023-05-25T15:40:37.361Z,12.32
2023-05-25T15:43:05.561Z,13.27
2023-05-25T15:45:34.483Z,14.55
2023-05-25T15:48:04.150Z,12.30
2023-05-25T15:50:33.176Z,14.20
2023-05-25T15:53:01.819Z,11.98
2023-05-25T15:55:30.460Z,11.57
2023-05-25T15:58:00.545Z,13.45
2023-05-25T16:00:29.317Z,10.80
2023-05-25T16:02:58.395Z,11.77
2023-05-25T16:05:30.340Z,11.60
2023-05-25T16:10:27.686Z,12.70
2023-05-25T16:12:56.315Z,12.75
2023-05-25T16:15:26.873Z,17.85
2023-05-25T16:17:55.561Z,15.20
2023-05-25T16:20:24.234Z,17.17
2023-05-25T16:22:52.710Z,13.38
2023-05-25T16:25:21.707Z,13.40
2023-05-25T16:27:50.259Z,14.45
2023-05-25T16:30:18.913Z,13.80
2023-05-25T16:32:49.100Z,12.05
2023-05-25T16:35:18.035Z,10.93
2023-05-25T16:37:46.521Z,12.43
2023-05-25T16:40:15.886Z,12.10
2023-05-25T16:42:44.429Z,22.75
2023-05-25T16:45:13.608Z,35.35
2023-05-25T16:47:42.249Z,15.23
2023-05-25T16:50:15.572Z,35.50
2023-05-25T16:52:44.093Z,24.80
2023-05-25T16:55:14.888Z,13.93
2023-05-25T16:57:45.189Z,14.60
2023-05-25T17:00:15.212Z,14.07
2023-05-25T17:02:43.726Z,13.90
2023-05-25T17:05:12.564Z,14.40
2023-05-25T17:07:42.692Z,11.63
2023-05-25T17:10:12.307Z,13.70
2023-05-25T17:12:40.949Z,12.00
2023-05-25T17:15:11.355Z,14.80
2023-05-25T17:17:39.863Z,16.48
2023-05-25T17:20:10.848Z,13.30
2023-05-25T17:22:39.776Z,12.32
2023-05-25T17:25:11.411Z,13.15
2023-05-25T17:27:40.167Z,12.95
2023-05-25T17:30:10.477Z,12.50
2023-05-25T17:32:40.179Z,13.15
2023-05-25T17:35:09.545Z,13.35
2023-05-25T17:37:38.204Z,13.20
2023-05-25T17:40:10.030Z,13.55
2023-05-25T17:42:40.797Z,12.27
2023-05-25T17:45:11.863Z,12.07
2023-05-25T17:47:40.473Z,13.07
2023-05-25T17:50:09.964Z,12.70
2023-05-25T17:52:38.609Z,13.20
2023-05-25T17:55:09.910Z,12.85
2023-05-25T17:57:38.228Z,13.15
2023-05-25T18:00:08.873Z,12.65
2023-05-25T18:02:37.610Z,13.35
2023-05-25T18:05:07.669Z,14.55
2023-05-25T18:07:36.161Z,13.45
2023-05-25T18:10:05.356Z,13.57
2023-05-25T18:12:35.271Z,13.63
2023-05-25T18:15:04.073Z,13.85
2023-05-25T18:17:32.614Z,13.20
2023-05-25T18:20:01.570Z,12.77
2023-05-25T18:22:30.150Z,12.75
2023-05-25T18:24:58.863Z,13.23
2023-05-25T18:27:27.298Z,13.15
2023-05-25T18:29:58.228Z,13.98
2023-05-25T18:32:26.702Z,13.00
2023-05-25T18:34:57.169Z,12.50
2023-05-25T18:37:26.723Z,12.85
2023-05-25T18:39:55.459Z,12.77
2023-05-25T18:42:24.012Z,12.45
2023-05-25T18:44:52.867Z,12.75
2023-05-25T18:47:23.933Z,12.77
2023-05-25T18:49:53.049Z,12.57
2023-05-25T18:52:22.524Z,13.73
2023-05-25T18:54:51.423Z,15.05
2023-05-25T18:57:20.162Z,11.18
2023-05-25T18:59:49.200Z,12.90
2023-05-25T19:02:18.295Z,12.18
2023-05-25T19:04:50.599Z,12.10
2023-05-25T19:07:19.137Z,13.13
2023-05-25T19:09:48.313Z,15.60
2023-05-25T19:12:16.595Z,14.20
2023-05-25T19:14:45.187Z,14.35
2023-05-25T19:17:14.550Z,14.70
2023-05-25T19:19:43.082Z,13.88
2023-05-25T19:22:13.023Z,14.82
2023-05-25T19:24:43.029Z,15.25
2023-05-25T19:27:15.322Z,15.20
2023-05-25T19:29:45.806Z,15.07
2023-05-25T19:32:15.155Z,14.63
2023-05-25T19:34:46.884Z,15.63
2023-05-25T19:37:16.536Z,15.27
2023-05-25T19:39:45.822Z,15.40
2023-05-25T19:42:14.213Z,14.77
2023-05-25T19:44:42.932Z,14.32
2023-05-25T19:47:11.266Z,15.80
2023-05-25T19:49:40.018Z,16.27
2023-05-25T19:52:08.544Z,16.15
2023-05-25T19:54:39.391Z,15.52
2023-05-25T19:57:07.854Z,17.30
2023-05-25T19:59:37.669Z,14.90
2023-05-25T20:02:06.508Z,16.25
2023-05-25T20:04:35.317Z,16.63
2023-05-25T20:07:03.704Z,17.40
2023-05-25T20:09:32.483Z,16.92
2023-05-25T20:12:02.660Z,16.65
2023-05-25T20:14:31.395Z,17.67
2023-05-25T20:16:59.825Z,18.60
2023-05-25T20:19:28.527Z,17.02
2023-05-25T20:21:57.920Z,17.02
2023-05-25T20:24:26.816Z,17.13
2023-05-25T20:26:56.907Z,17.42
2023-05-25T20:29:27.624Z,17.15
2023-05-25T20:31:55.977Z,16.48
2023-05-25T20:34:24.681Z,16.67
2023-05-25T20:36:53.660Z,16.60
2023-05-25T20:39:22.228Z,18.13
2023-05-25T20:41:50.727Z,15.43
2023-05-25T20:44:19.360Z,16.40
2023-05-25T20:46:49.062Z,15.95
2023-05-25T20:49:17.678Z,16.73
2023-05-25T20:51:50.072Z,16.85
2023-05-25T20:54:18.924Z,17.23
2023-05-25T20:56:51.161Z,16.20
2023-05-25T20:59:19.726Z,16.77
2023-05-25T21:01:49.397Z,16.45
2023-05-25T21:04:18.106Z,18.42
2023-05-25T21:06:46.888Z,16.60
2023-05-25T21:09:15.560Z,17.23
2023-05-25T21:11:43.971Z,16.67
2023-05-25T21:14:12.716Z,17.17
2023-05-25T21:16:41.188Z,17.63
2023-05-25T21:19:11.638Z,17.00
2023-05-25T21:21:40.223Z,16.20
2023-05-25T21:24:09.252Z,16.83
2023-05-25T21:26:37.646Z,15.95
2023-05-25T21:29:07.958Z,15.77
2023-05-25T21:31:36.408Z,15.55
2023-05-25T21:34:05.549Z,15.20
2023-05-25T21:36:36.389Z,16.45
2023-05-25T21:39:05.443Z,17.45
2023-05-25T21:41:33.838Z,16.48
2023-05-25T21:44:02.539Z,17.42
2023-05-25T21:46:31.076Z,17.73
2023-05-25T21:49:00.769Z,16.25
2023-05-25T21:51:30.099Z,17.23
2023-05-25T21:54:00.607Z,15.68
2023-05-25T21:56:29.102Z,15.75
2023-05-25T21:58:57.754Z,15.65
2023-05-25T22:01:26.284Z,16.75
2023-05-25T22:03:54.948Z,16.50
2023-05-25T22:06:24.420Z,14.48
2023-05-25T22:08:53.142Z,16.88
2023-05-25T22:11:24.594Z,17.52
2023-05-25T22:13:53.573Z,16.30
2023-05-25T22:16:22.298Z,17.98
2023-05-25T22:18:51.091Z,16.45
2023-05-25T22:21:19.368Z,16.27
2023-05-25T22:23:48.130Z,16.83
2023-05-25T22:26:16.409Z,16.63
2023-05-25T22:28:46.481Z,17.77
2023-05-25T22:31:14.940Z,16.92
2023-05-25T22:33:46.762Z,16.02
2023-05-25T22:36:16.389Z,16.77
2023-05-25T22:38:44.878Z,16.63
2023-05-25T22:41:13.660Z,16.52
2023-05-25T22:43:42.427Z,17.70
2023-05-25T22:46:12.192Z,16.75
2023-05-25T22:48:41.255Z,17.58
2023-05-25T22:51:09.540Z,18.10
2023-05-25T22:53:38.542Z,18.52
2023-05-25T22:56:07.040Z,19.65
2023-05-25T22:58:35.880Z,18.67
2023-05-25T23:01:04.248Z,18.88
2023-05-25T23:03:34.471Z,18.65
2023-05-25T23:06:03.070Z,20.48
2023-05-25T23:08:32.013Z,20.70
2023-05-25T23:11:00.275Z,19.77
2023-05-25T23:13:29.592Z,20.70
2023-05-25T23:15:57.981Z,20.30
2023-05-25T23:18:26.910Z,19.92
2023-05-25T23:20:56.830Z,20.48
2023-05-25T23:23:25.381Z,19.67
2023-05-25T23:25:54.360Z,21.02
2023-05-25T23:28:23.049Z,20.92
2023-05-25T23:30:51.981Z,23.75
2023-05-25T23:33:20.451Z,24.35
2023-05-25T23:35:49.121Z,21.35
2023-05-25T23:38:19.550Z,20.77
2023-05-25T23:40:47.874Z,24.30
2023-05-25T23:43:17.334Z,20.88
2023-05-25T23:45:45.876Z,22.00
2023-05-25T23:48:14.855Z,22.67
2023-05-25T23:50:43.124Z,23.75
2023-05-25T23:53:11.987Z,23.88
2023-05-25T23:55:42.033Z,22.70
2023-05-25T23:58:10.539Z,22.85
